createdAt,value
2024-03-01T00:05:03.800Z,19.52
2024-03-01T00:10:08.941Z,19.48
2024-03-01T00:15:12.034Z,19.45
2024-03-01T00:20:16.403Z,19.39
2024-03-01T00:25:20.160Z,19.36
2024-03-01T00:30:23.074Z,19.31
2024-03-01T00:35:27.358Z,19.25
2024-03-01T00:40:30.193Z,19.23
2024-03-01T00:45:33.264Z,19.18
2024-03-01T00:50:37.473Z,19.12
2024-03-01T00:55:40.291Z,19.09
2024-03-01T01:00:43.372Z,19.07
2024-03-01T01:05:47.545Z,19.04
2024-03-01T01:10:50.468Z,19.01
2024-03-01T01:15:53.422Z,18.98
2024-03-01T01:20:57.737Z,18.96
2024-03-01T01:26:00.590Z,18.92
2024-03-01T01:31:03.517Z,18.89
2024-03-01T01:36:08.094Z,18.86
2024-03-01T01:41:11.029Z,18.83
2024-03-01T01:46:14.051Z,18.80
2024-03-01T01:51:19.055Z,18.78
2024-03-01T01:56:21.932Z,18.75
2024-03-01T02:01:24.910Z,18.71
2024-03-01T02:06:30.381Z,18.70
2024-03-01T02:11:35.273Z,18.66
2024-03-01T02:16:38.304Z,18.64
2024-03-01T02:21:45.127Z,18.61
2024-03-01T02:26:49.469Z,18.56
2024-03-01T02:31:52.283Z,18.58
2024-03-01T02:36:55.129Z,18.54
2024-03-01T02:41:59.710Z,18.52
2024-03-01T02:47:02.568Z,18.52
2024-03-01T02:52:05.597Z,18.49
2024-03-01T02:57:10.747Z,18.46
2024-03-01T03:02:13.507Z,18.43
2024-03-01T03:07:16.598Z,18.41
2024-03-01T03:12:20.762Z,18.38
2024-03-01T03:17:23.956Z,18.35
2024-03-01T03:22:26.784Z,18.34
2024-03-01T03:27:30.956Z,18.31
2024-03-01T03:32:33.805Z,18.28
2024-03-01T03:37:36.797Z,18.26
2024-03-01T03:42:41.193Z,18.24
2024-03-01T03:47:43.948Z,18.23
2024-03-01T03:52:46.741Z,18.20
2024-03-01T03:57:50.944Z,18.19
2024-03-01T04:02:53.860Z,18.15
2024-03-01T04:07:56.644Z,18.11
2024-03-01T04:13:01.288Z,18.14
2024-03-01T04:18:04.374Z,18.13
2024-03-01T04:23:07.232Z,18.13
2024-03-01T04:28:11.648Z,18.10
2024-03-01T04:33:14.569Z,18.10
2024-03-01T04:38:17.540Z,18.07
2024-03-01T04:43:22.118Z,18.05
2024-03-01T04:48:25.128Z,18.05
2024-03-01T04:53:27.932Z,18.03
2024-03-01T04:58:32.173Z,18.03
2024-03-01T05:03:35.040Z,18.02
2024-03-01T05:08:37.780Z,17.99
2024-03-01T05:13:42.354Z,17.99
2024-03-01T05:18:45.271Z,17.99
2024-03-01T05:23:48.133Z,17.98
2024-03-01T05:28:52.497Z,17.98
2024-03-01T05:33:55.342Z,17.97
2024-03-01T05:38:58.154Z,17.95
2024-03-01T05:50:50.108Z,17.95
2024-03-01T05:55:53.114Z,17.92
2024-03-01T06:00:56.410Z,17.91
2024-03-01T06:06:02.000Z,17.91
2024-03-01T06:11:06.054Z,17.89
2024-03-01T06:16:09.482Z,17.89
2024-03-01T06:21:21.640Z,17.86
2024-03-01T06:26:24.523Z,17.87
2024-03-01T06:31:27.461Z,17.87
2024-03-01T06:36:31.683Z,17.87
2024-03-01T06:41:34.548Z,17.88
2024-03-01T06:46:37.508Z,17.88
2024-03-01T06:51:41.717Z,17.90
2024-03-01T06:56:44.559Z,17.89
2024-03-01T07:01:47.496Z,17.91
2024-03-01T07:06:51.856Z,17.91
2024-03-01T07:11:54.735Z,17.94
2024-03-01T07:16:57.788Z,17.96
2024-03-01T07:22:02.139Z,17.96
2024-03-01T07:27:05.454Z,17.96
2024-03-01T07:32:08.672Z,17.99
2024-03-01T07:37:13.346Z,18.03
2024-03-01T07:42:16.227Z,18.04
2024-03-01T07:47:19.097Z,18.06
2024-03-01T07:52:23.320Z,18.04
2024-03-01T07:57:26.163Z,15.30
2024-03-01T08:02:28.956Z,14.62
2024-03-01T08:07:33.230Z,13.97
2024-03-01T08:12:36.042Z,15.00
2024-03-01T08:17:39.099Z,16.33
2024-03-01T08:22:43.450Z,17.04
2024-03-01T08:27:46.296Z,17.44
2024-03-01T08:32:49.841Z,17.73
2024-03-01T08:37:54.019Z,17.91
2024-03-01T08:42:56.904Z,18.05
2024-03-01T08:48:14.604Z,18.17
2024-03-01T08:54:00.517Z,18.25
2024-03-01T08:59:09.718Z,18.35
2024-03-01T09:04:13.978Z,18.39
2024-03-01T09:09:23.038Z,18.48
2024-03-01T09:14:30.680Z,18.53
2024-03-01T09:19:37.736Z,18.62
2024-03-01T09:24:41.892Z,18.62
2024-03-01T09:29:47.770Z,18.67
2024-03-01T09:34:50.675Z,18.68
2024-03-01T09:39:54.985Z,18.70
2024-03-01T09:45:18.747Z,18.64
2024-03-01T09:50:27.491Z,18.63
2024-03-01T09:55:34.966Z,18.69
2024-03-01T10:00:40.402Z,18.74
2024-03-01T10:05:55.625Z,18.76
2024-03-01T10:11:19.038Z,18.81
2024-03-01T10:16:26.961Z,18.79
2024-03-01T10:21:31.977Z,18.73
2024-03-01T10:26:36.155Z,18.77
2024-03-01T10:31:43.188Z,18.78
2024-03-01T10:36:47.025Z,18.76
2024-03-01T10:41:59.538Z,18.79
2024-03-01T10:47:07.399Z,18.80
2024-03-01T10:52:12.962Z,18.84
2024-03-01T10:57:18.550Z,18.83
2024-03-01T11:02:24.783Z,18.90
2024-03-01T11:07:30.416Z,18.93
2024-03-01T11:12:36.797Z,18.94
2024-03-01T11:17:39.923Z,18.97
2024-03-01T11:22:44.794Z,19.00
2024-03-01T11:27:50.714Z,19.05
2024-03-01T11:32:56.445Z,19.10
2024-03-01T11:38:02.427Z,19.16
2024-03-01T11:43:12.763Z,19.21
2024-03-01T11:48:26.976Z,19.22
2024-03-01T11:53:48.901Z,19.26
2024-03-01T11:58:55.973Z,19.28
2024-03-01T12:04:20.651Z,19.29
2024-03-01T12:09:28.299Z,19.33
2024-03-01T12:14:34.046Z,19.32
2024-03-01T12:19:41.483Z,19.32
2024-03-01T12:24:44.302Z,19.37
2024-03-01T12:29:58.612Z,19.37
2024-03-01T12:35:11.243Z,19.39
2024-03-01T12:40:19.028Z,19.41
2024-03-01T12:45:28.846Z,19.44
2024-03-01T12:50:39.095Z,19.50
2024-03-01T12:55:48.889Z,19.53
2024-03-01T13:00:57.424Z,19.53
2024-03-01T13:06:00.322Z,19.54
2024-03-01T13:11:05.120Z,19.56
2024-03-01T13:16:11.979Z,19.56
2024-03-01T13:21:18.126Z,19.54
2024-03-01T13:26:26.521Z,19.52
2024-03-01T13:31:37.157Z,19.50
2024-03-01T13:36:41.743Z,19.49
2024-03-01T13:41:50.872Z,19.48
2024-03-01T13:46:58.600Z,19.46
2024-03-01T13:52:01.420Z,19.44
2024-03-01T13:57:05.882Z,19.43
2024-03-01T14:02:12.382Z,19.40
2024-03-01T14:07:16.223Z,19.38
2024-03-01T14:12:19.035Z,19.38
2024-03-01T14:17:24.270Z,19.36
2024-03-01T14:22:27.144Z,19.40
2024-03-01T14:27:30.877Z,19.41
2024-03-01T14:32:35.259Z,19.41
2024-03-01T14:37:38.227Z,19.37
2024-03-01T14:42:42.132Z,19.36
2024-03-01T14:47:55.321Z,19.34
2024-03-01T14:53:03.265Z,19.33
2024-03-01T14:58:09.929Z,19.32
2024-03-01T15:03:15.236Z,19.29
2024-03-01T15:08:20.658Z,19.27
2024-03-01T15:13:24.108Z,19.24
2024-03-01T15:18:28.398Z,19.23
2024-03-01T15:23:38.991Z,19.22
2024-03-01T15:28:42.836Z,19.19
2024-03-01T15:33:48.631Z,19.18
2024-03-01T15:38:51.483Z,19.15
2024-03-01T15:43:54.336Z,19.13
2024-03-01T15:48:58.657Z,19.08
2024-03-01T15:54:01.490Z,19.09
2024-03-01T15:59:06.796Z,19.08
2024-03-01T16:04:11.244Z,19.06
2024-03-01T16:09:14.012Z,19.05
2024-03-01T16:14:16.769Z,19.03
2024-03-01T16:19:21.492Z,19.03
2024-03-01T16:24:24.309Z,19.01
2024-03-01T16:29:27.117Z,19.01
2024-03-01T16:34:31.529Z,18.99
2024-03-01T16:39:35.517Z,18.97
2024-03-01T16:44:42.339Z,18.98
2024-03-01T16:49:46.641Z,18.98
2024-03-01T16:54:49.548Z,18.96
2024-03-01T16:59:52.305Z,18.96
2024-03-01T17:04:56.689Z,18.94
2024-03-01T17:10:00.038Z,18.94
2024-03-01T17:15:03.982Z,18.96
2024-03-01T17:20:10.056Z,18.92
2024-03-01T17:25:12.839Z,18.90
2024-03-01T17:30:16.221Z,18.93
2024-03-01T17:35:22.242Z,18.91
2024-03-01T17:40:26.028Z,18.93
2024-03-01T17:45:29.228Z,18.90
2024-03-01T17:50:33.352Z,18.88
2024-03-01T17:55:36.321Z,18.85
2024-03-01T18:00:39.293Z,18.81
2024-03-01T18:05:43.583Z,18.77
2024-03-01T18:10:46.445Z,18.73
2024-03-01T18:15:49.396Z,18.74
2024-03-01T18:20:54.400Z,18.69
2024-03-01T18:25:57.402Z,18.69
2024-03-01T18:31:02.456Z,18.68
2024-03-01T18:36:07.521Z,18.66
2024-03-01T18:41:10.590Z,18.70
2024-03-01T18:46:13.628Z,18.81
2024-03-01T18:51:17.858Z,18.91
2024-03-01T18:56:21.585Z,19.02
2024-03-01T19:01:24.635Z,19.11
2024-03-01T19:06:28.916Z,19.20
2024-03-01T19:11:31.933Z,19.34
2024-03-01T19:16:35.162Z,19.45
2024-03-01T19:21:39.422Z,19.57
2024-03-01T19:26:42.242Z,19.63
2024-03-01T19:31:45.167Z,19.67
2024-03-01T19:36:49.580Z,19.75
2024-03-01T19:41:53.892Z,19.79
2024-03-01T19:46:58.492Z,19.84
2024-03-01T19:52:02.669Z,19.87
2024-03-01T19:57:06.001Z,19.91
2024-03-01T20:02:09.009Z,19.95
2024-03-01T20:07:13.311Z,19.98
2024-03-01T20:12:16.278Z,20.01
2024-03-01T20:17:19.099Z,20.05
2024-03-01T20:22:23.807Z,20.09
2024-03-01T20:27:26.786Z,20.12
2024-03-01T20:32:29.940Z,20.15
2024-03-01T20:37:34.337Z,20.17
2024-03-01T20:42:37.234Z,20.20
2024-03-01T20:47:40.047Z,20.21
2024-03-01T20:52:44.337Z,20.22
2024-03-01T20:57:47.273Z,20.24
2024-03-01T21:09:49.723Z,20.27
2024-03-01T21:14:53.203Z,20.28
2024-03-01T21:19:56.079Z,20.27
2024-03-01T21:25:00.298Z,20.33
2024-03-01T21:30:03.180Z,20.33
2024-03-01T21:35:07.861Z,20.38
2024-03-01T21:40:21.118Z,20.45
2024-03-01T21:45:23.989Z,20.46
2024-03-01T21:50:26.860Z,20.46
2024-03-01T21:55:31.117Z,20.51
2024-03-01T22:00:34.045Z,20.53
2024-03-01T22:05:36.927Z,20.53
2024-03-01T22:10:41.135Z,20.56
2024-03-01T22:15:44.248Z,20.59
2024-03-01T22:20:47.153Z,20.59
2024-03-01T22:25:51.304Z,20.58
2024-03-01T22:30:54.882Z,20.58
2024-03-01T22:35:57.788Z,20.55
2024-03-01T22:41:02.722Z,20.54
2024-03-01T22:46:06.048Z,20.54
2024-03-01T22:51:09.821Z,20.56
2024-03-01T22:56:19.555Z,20.56
2024-03-01T23:01:25.064Z,20.56
2024-03-01T23:06:28.325Z,20.56
2024-03-01T23:11:42.106Z,20.56
2024-03-01T23:16:44.908Z,20.57
2024-03-01T23:21:47.701Z,20.58
2024-03-01T23:26:52.170Z,20.58
2024-03-01T23:31:55.024Z,20.58
2024-03-01T23:37:00.033Z,20.58
2024-03-01T23:42:05.012Z,20.59
2024-03-01T23:47:08.260Z,20.59
2024-03-01T23:52:11.429Z,20.59
2024-03-01T23:57:15.660Z,20.60
